Time;durP1;ratioP1;P1;durP2;ratioP2;P2;SDS_P1;SDS_P2;PMS_P1;PMS_P2;Temp;Humidity;BMP_temperature;BMP_pressure;BME280_temperature;BME280_humidity;BME280_pressure;Samples;Min_cycle;Max_cycle;Signal;HPM_P1;HPM_P2
2023/12/30 00:00:36;;;;;;;19.23;13.47;;;9.20;99.90;;;;;;5038151;28;20200;-62
2023/12/30 00:03:03;;;;;;;14.00;12.60;;;9.20;99.90;;;;;;5031193;28;20197;-68
2023/12/30 00:05:30;;;;;;;15.57;12.20;;;9.10;99.90;;;;;;5031904;28;20436;-67
2023/12/30 00:07:57;;;;;;;13.77;12.43;;;9.20;99.90;;;;;;5029926;28;20200;-68
2023/12/30 00:10:24;;;;;;;13.00;12.10;;;9.20;99.90;;;;;;5031683;28;20295;-69
2023/12/30 00:12:52;;;;;;;14.57;13.20;;;9.10;99.90;;;;;;5032770;28;20660;-67
2023/12/30 00:15:20;;;;;;;14.47;13.17;;;9.20;99.90;;;;;;5027197;28;20192;-68
2023/12/30 00:17:48;;;;;;;15.57;13.27;;;9.20;99.90;;;;;;5027805;28;20275;-68
2023/12/30 00:20:15;;;;;;;14.43;13.10;;;9.30;99.90;;;;;;5010241;28;20672;-68
2023/12/30 00:22:42;;;;;;;13.87;12.87;;;9.20;99.90;;;;;;5027203;28;20591;-68
2023/12/30 00:25:10;;;;;;;14.57;13.17;;;9.20;99.90;;;;;;5030597;28;20278;-69
2023/12/30 00:27:37;;;;;;;13.87;12.47;;;9.20;99.90;;;;;;5013542;28;20254;-68
2023/12/30 00:30:05;;;;;;;16.87;13.07;;;9.20;99.90;;;;;;5036196;28;20251;-68
2023/12/30 00:32:32;;;;;;;14.27;12.73;;;9.20;99.90;;;;;;5039386;28;20201;-68
2023/12/30 00:35:00;;;;;;;15.03;12.93;;;9.20;99.90;;;;;;5000854;28;20180;-68
2023/12/30 00:37:27;;;;;;;13.83;12.83;;;9.20;99.90;;;;;;5030613;28;20239;-68
2023/12/30 00:39:54;;;;;;;15.00;13.50;;;9.20;99.90;;;;;;5043053;28;20272;-68
2023/12/30 00:42:21;;;;;;;19.43;13.13;;;9.20;99.90;;;;;;5030836;28;20206;-68
2023/12/30 00:44:48;;;;;;;14.50;13.23;;;9.20;99.90;;;;;;5012944;28;20674;-69
2023/12/30 00:47:15;;;;;;;15.40;13.87;;;9.20;99.90;;;;;;5012080;28;20603;-69
2023/12/30 00:49:42;;;;;;;14.47;13.37;;;9.10;99.90;;;;;;5030559;28;20242;-69
2023/12/30 00:52:09;;;;;;;14.57;13.30;;;9.00;99.90;;;;;;5033207;28;20693;-68
2023/12/30 00:54:36;;;;;;;13.60;12.40;;;9.00;99.90;;;;;;5021037;28;20290;-68
2023/12/30 00:57:13;;;;;;;14.20;12.80;;;9.00;99.90;;;;;;5026171;28;20200;-68
2023/12/30 00:59:40;;;;;;;13.43;12.43;;;9.00;99.90;;;;;;5030680;28;20770;-69
2023/12/30 01:02:08;;;;;;;13.63;12.83;;;8.80;99.90;;;;;;5029754;28;20222;-68
2023/12/30 01:04:35;;;;;;;16.23;13.67;;;9.00;99.90;;;;;;5012249;28;20215;-68
2023/12/30 01:07:02;;;;;;;14.33;13.20;;;9.00;99.90;;;;;;5038833;28;20612;-67
2023/12/30 01:09:30;;;;;;;14.20;13.00;;;8.90;99.90;;;;;;5016948;28;20707;-68
2023/12/30 01:11:57;;;;;;;14.20;13.17;;;9.00;99.90;;;;;;5017188;28;20625;-62
2023/12/30 01:14:24;;;;;;;14.70;13.20;;;9.00;99.90;;;;;;5013310;28;20378;-62
2023/12/30 01:16:51;;;;;;;14.67;13.33;;;9.00;99.90;;;;;;5017167;28;20680;-62
2023/12/30 01:19:18;;;;;;;14.33;13.23;;;8.90;99.90;;;;;;5016696;28;20309;-62
2023/12/30 01:21:45;;;;;;;15.27;14.33;;;8.80;99.90;;;;;;5029247;28;20333;-62
2023/12/30 01:24:12;;;;;;;13.60;12.80;;;8.50;99.90;;;;;;5012248;28;20219;-61
2023/12/30 01:26:39;;;;;;;13.70;12.80;;;8.30;99.90;;;;;;5011783;28;20377;-62
2023/12/30 01:29:07;;;;;;;14.07;13.10;;;8.10;99.90;;;;;;5030189;28;20208;-62
2023/12/30 01:31:34;;;;;;;13.57;12.77;;;8.10;99.90;;;;;;5038775;28;20763;-63
2023/12/30 01:34:01;;;;;;;13.50;12.70;;;8.00;99.90;;;;;;5032067;28;20200;-62
2023/12/30 01:36:28;;;;;;;14.27;12.97;;;8.00;99.90;;;;;;5029323;28;20227;-62
2023/12/30 01:38:55;;;;;;;14.53;13.13;;;7.90;99.90;;;;;;5010638;28;20701;-63
2023/12/30 01:41:23;;;;;;;13.87;13.03;;;7.90;99.90;;;;;;5029708;28;20203;-62
2023/12/30 01:43:50;;;;;;;13.20;12.47;;;7.90;99.90;;;;;;5034011;28;20420;-62
2023/12/30 01:46:17;;;;;;;13.10;12.40;;;7.80;99.90;;;;;;5033544;28;20572;-63
2023/12/30 01:48:44;;;;;;;13.70;12.80;;;7.80;99.90;;;;;;5028763;28;20193;-62
2023/12/30 01:51:12;;;;;;;13.80;12.70;;;7.90;99.90;;;;;;5008004;28;20718;-62
2023/12/30 01:53:53;;;;;;;13.27;12.57;;;7.90;99.90;;;;;;5029525;28;20196;-63
2023/12/30 01:56:22;;;;;;;13.57;12.70;;;7.80;99.90;;;;;;5012555;28;20200;-61
2023/12/30 01:58:51;;;;;;;13.93;13.00;;;7.70;99.90;;;;;;5009990;28;20541;-62
2023/12/30 02:01:22;;;;;;;13.47;12.70;;;7.60;99.90;;;;;;4998229;28;20291;-62
2023/12/30 02:03:50;;;;;;;13.33;12.63;;;7.50;99.90;;;;;;5002848;28;20209;-63
2023/12/30 02:06:17;;;;;;;13.30;12.50;;;7.30;99.90;;;;;;5025398;28;20212;-62
2023/12/30 02:08:45;;;;;;;12.97;12.20;;;7.10;99.90;;;;;;5017490;28;20206;-62
2023/12/30 02:11:15;;;;;;;13.03;12.33;;;7.00;99.90;;;;;;5031402;28;20354;-62
2023/12/30 02:13:42;;;;;;;13.37;12.40;;;6.90;99.90;;;;;;5027958;28;20188;-62
2023/12/30 02:16:10;;;;;;;13.27;12.47;;;6.90;99.90;;;;;;5029013;28;20660;-62
2023/12/30 02:18:38;;;;;;;14.40;13.30;;;6.80;99.90;;;;;;5010249;28;20196;-62
2023/12/30 02:21:05;;;;;;;13.60;12.70;;;6.70;99.90;;;;;;5011178;28;20611;-61
2023/12/30 02:23:32;;;;;;;12.70;12.00;;;6.70;99.90;;;;;;5029080;28;20258;-62
2023/12/30 02:25:59;;;;;;;12.90;12.10;;;6.50;99.90;;;;;;5020474;28;20601;-62
2023/12/30 02:28:26;;;;;;;12.60;11.90;;;6.40;99.90;;;;;;5009656;28;20212;-63
2023/12/30 02:30:53;;;;;;;12.50;11.60;;;6.30;99.90;;;;;;5028357;28;20266;-62
2023/12/30 02:33:20;;;;;;;12.93;11.77;;;6.20;99.90;;;;;;5028703;28;20190;-62
2023/12/30 02:35:47;;;;;;;12.97;11.70;;;6.10;99.90;;;;;;5028612;28;20228;-62
2023/12/30 02:38:14;;;;;;;12.00;11.07;;;6.10;99.90;;;;;;5008639;28;20274;-62
2023/12/30 02:40:41;;;;;;;11.93;11.23;;;6.10;99.90;;;;;;5034090;28;20551;-62
2023/12/30 02:43:08;;;;;;;12.77;11.40;;;6.10;99.90;;;;;;5028342;28;20299;-62
2023/12/30 02:45:35;;;;;;;12.10;11.03;;;6.10;99.90;;;;;;4995007;28;20557;-62
2023/12/30 02:48:03;;;;;;;11.60;10.90;;;6.10;99.90;;;;;;4991243;28;20680;-62
2023/12/30 02:50:30;;;;;;;11.77;11.17;;;6.10;99.90;;;;;;5026046;28;20196;-63
2023/12/30 02:52:57;;;;;;;12.10;11.30;;;6.10;99.90;;;;;;5029394;28;20290;-69
2023/12/30 02:55:24;;;;;;;11.53;10.67;;;6.20;99.90;;;;;;5028496;28;20245;-63
2023/12/30 02:57:51;;;;;;;11.23;10.53;;;6.30;99.90;;;;;;5020988;28;20659;-65
2023/12/30 03:03:40;;;;;;;16.27;11.50;;;6.50;99.90;;;;;;5016135;28;20797;-63
2023/12/30 03:06:07;;;;;;;12.27;11.07;;;6.70;99.90;;;;;;5029628;28;20325;-62
2023/12/30 03:08:35;;;;;;;15.37;11.20;;;6.80;99.90;;;;;;4999971;28;20423;-63
2023/12/30 03:11:03;;;;;;;13.43;12.00;;;7.20;99.90;;;;;;5031744;28;20270;-67
2023/12/30 03:13:30;;;;;;;13.60;11.47;;;7.40;99.90;;;;;;5026196;28;20283;-63
2023/12/30 03:15:57;;;;;;;12.83;11.50;;;7.40;99.90;;;;;;5017135;28;20258;-62
2023/12/30 03:18:25;;;;;;;16.00;11.47;;;7.50;99.90;;;;;;5031935;28;20191;-62
2023/12/30 03:20:52;;;;;;;13.00;11.77;;;7.60;99.90;;;;;;4993533;28;20200;-62
2023/12/30 03:23:19;;;;;;;14.77;12.57;;;7.60;99.90;;;;;;4994191;28;20668;-62
2023/12/30 03:25:46;;;;;;;11.93;11.13;;;7.50;99.90;;;;;;5027945;28;20287;-62
2023/12/30 03:28:12;;;;;;;13.17;11.80;;;7.60;99.90;;;;;;5010256;28;20208;-62
2023/12/30 03:30:39;;;;;;;12.60;11.47;;;7.60;99.90;;;;;;5028527;28;20628;-62
2023/12/30 03:33:07;;;;;;;12.73;11.50;;;7.60;99.90;;;;;;5009397;28;20293;-62
2023/12/30 03:35:35;;;;;;;12.73;11.83;;;7.70;99.90;;;;;;5033582;28;20231;-63
2023/12/30 03:38:02;;;;;;;13.17;12.07;;;7.70;99.90;;;;;;5022672;28;20545;-62
2023/12/30 03:40:29;;;;;;;13.90;12.60;;;7.80;99.90;;;;;;5010575;28;20196;-61
2023/12/30 03:42:56;;;;;;;13.70;12.33;;;7.70;99.90;;;;;;5025183;28;20648;-61
2023/12/30 03:45:23;;;;;;;12.90;12.00;;;7.70;99.90;;;;;;5028372;28;20200;-62
2023/12/30 03:47:52;;;;;;;13.20;12.00;;;7.70;99.90;;;;;;5027997;28;20196;-61
2023/12/30 03:50:20;;;;;;;13.53;12.00;;;7.70;99.90;;;;;;5010739;28;20200;-62
2023/12/30 03:52:49;;;;;;;12.77;11.80;;;7.80;99.90;;;;;;5008990;28;20216;-63
2023/12/30 03:55:16;;;;;;;13.60;12.40;;;7.70;99.90;;;;;;5009568;28;20196;-63
2023/12/30 03:57:43;;;;;;;13.13;12.03;;;7.60;99.90;;;;;;5027154;28;20247;-63
2023/12/30 04:00:11;;;;;;;14.90;12.20;;;7.50;99.90;;;;;;5020379;28;21224;-62
2023/12/30 04:02:40;;;;;;;12.73;11.67;;;7.60;99.90;;;;;;4994174;28;20204;-62
2023/12/30 04:05:07;;;;;;;12.87;11.80;;;7.70;99.90;;;;;;5011862;28;20227;-62
2023/12/30 04:07:36;;;;;;;12.47;11.57;;;7.70;99.90;;;;;;5030193;28;20226;-62
2023/12/30 04:10:03;;;;;;;12.97;11.87;;;7.50;99.90;;;;;;4988878;28;20266;-62
2023/12/30 04:12:32;;;;;;;13.10;11.80;;;7.60;99.90;;;;;;5010665;28;20212;-62
2023/12/30 04:14:59;;;;;;;19.50;12.33;;;7.60;99.90;;;;;;5008327;28;20196;-64
2023/12/30 04:17:26;;;;;;;12.63;11.60;;;7.50;99.90;;;;;;5012074;28;20203;-62
2023/12/30 04:19:54;;;;;;;18.20;11.93;;;7.50;99.90;;;;;;5007895;28;20608;-62
2023/12/30 04:22:21;;;;;;;14.80;11.97;;;7.30;99.90;;;;;;5007727;28;20208;-62
2023/12/30 04:24:48;;;;;;;12.57;11.40;;;7.40;99.90;;;;;;5038630;28;20226;-63
2023/12/30 04:27:16;;;;;;;16.73;11.70;;;7.40;99.90;;;;;;5009100;28;20203;-63
2023/12/30 04:29:43;;;;;;;12.10;11.20;;;7.40;99.90;;;;;;4999278;28;20259;-62
2023/12/30 04:32:10;;;;;;;12.63;11.30;;;7.30;99.90;;;;;;5028024;28;20208;-62
2023/12/30 04:34:37;;;;;;;12.90;11.50;;;7.40;99.90;;;;;;5010759;28;20291;-63
2023/12/30 04:37:04;;;;;;;14.33;11.13;;;7.50;99.90;;;;;;5010478;28;20222;-62
2023/12/30 04:39:31;;;;;;;12.63;11.50;;;7.50;99.90;;;;;;5032786;28;20192;-63
2023/12/30 04:41:59;;;;;;;12.73;11.60;;;7.60;99.90;;;;;;5037455;28;20287;-67
2023/12/30 04:44:29;;;;;;;15.07;12.43;;;7.70;99.90;;;;;;5012169;28;20660;-67
2023/12/30 04:46:56;;;;;;;12.70;11.70;;;7.70;99.90;;;;;;5021367;28;20215;-67
2023/12/30 04:49:23;;;;;;;13.60;11.50;;;7.60;99.90;;;;;;5011880;28;20209;-67
2023/12/30 04:51:50;;;;;;;12.07;11.17;;;7.60;99.90;;;;;;5001768;28;20287;-67
2023/12/30 04:54:17;;;;;;;12.87;11.53;;;7.70;99.90;;;;;;5015166;28;20259;-67
2023/12/30 04:56:44;;;;;;;12.20;11.17;;;7.70;99.90;;;;;;5033403;28;20211;-66
2023/12/30 04:59:11;;;;;;;14.90;12.13;;;7.60;99.90;;;;;;5017865;28;20728;-67
2023/12/30 05:01:38;;;;;;;14.07;12.83;;;7.70;99.90;;;;;;5014425;28;20230;-67
2023/12/30 05:04:05;;;;;;;12.70;11.80;;;7.70;99.90;;;;;;5014601;28;20638;-67
2023/12/30 05:06:32;;;;;;;13.67;11.93;;;7.70;99.90;;;;;;5013133;28;20263;-66
2023/12/30 05:09:00;;;;;;;12.80;11.63;;;7.70;99.90;;;;;;5003436;28;20280;-66
2023/12/30 05:11:27;;;;;;;13.00;12.03;;;7.80;99.90;;;;;;5015404;28;20200;-67
2023/12/30 05:13:54;;;;;;;12.60;11.83;;;7.70;99.90;;;;;;5015797;28;20265;-66
2023/12/30 05:16:21;;;;;;;12.30;11.47;;;7.80;99.90;;;;;;5035367;28;20198;-66
2023/12/30 05:18:48;;;;;;;13.60;12.40;;;7.80;99.90;;;;;;5024681;28;20211;-66
2023/12/30 05:21:16;;;;;;;13.43;12.20;;;7.70;99.90;;;;;;5008530;28;20513;-66
2023/12/30 05:23:44;;;;;;;13.07;12.07;;;7.70;99.90;;;;;;4994319;28;20280;-66
2023/12/30 05:26:14;;;;;;;13.70;12.50;;;7.70;99.90;;;;;;5032251;28;20227;-66
2023/12/30 05:28:41;;;;;;;13.67;12.53;;;7.60;99.90;;;;;;5012406;28;20250;-66
2023/12/30 05:31:08;;;;;;;13.10;12.23;;;7.40;99.90;;;;;;5006046;28;20219;-66
2023/12/30 05:33:36;;;;;;;14.40;12.80;;;7.30;99.90;;;;;;5027553;28;20743;-66
2023/12/30 05:36:03;;;;;;;13.43;12.40;;;7.10;99.90;;;;;;4997218;28;20248;-66
2023/12/30 05:38:30;;;;;;;12.87;11.93;;;7.00;99.90;;;;;;5031545;28;20200;-66
2023/12/30 05:40:57;;;;;;;13.73;12.80;;;6.90;99.90;;;;;;5011102;28;20220;-66
2023/12/30 05:43:24;;;;;;;13.87;12.77;;;6.80;99.90;;;;;;5012115;28;20208;-66
2023/12/30 05:45:53;;;;;;;13.83;12.60;;;6.80;99.90;;;;;;5023986;28;20201;-66
2023/12/30 05:48:26;;;;;;;12.90;12.00;;;6.80;99.90;;;;;;5026545;28;20200;-66
2023/12/30 05:50:53;;;;;;;13.20;12.20;;;6.70;99.90;;;;;;5002917;28;20235;-69
2023/12/30 05:53:22;;;;;;;13.37;12.47;;;6.60;99.90;;;;;;5026233;28;20200;-64
2023/12/30 05:55:52;;;;;;;14.23;13.10;;;6.50;99.90;;;;;;5010657;28;20228;-63
2023/12/30 05:58:19;;;;;;;13.30;12.50;;;6.60;99.90;;;;;;5030717;28;20211;-64
2023/12/30 06:00:46;;;;;;;14.40;13.20;;;6.60;99.90;;;;;;5029424;28;20593;-65
2023/12/30 06:03:13;;;;;;;13.57;12.67;;;6.60;99.90;;;;;;5027384;28;20560;-63
2023/12/30 06:05:40;;;;;;;13.40;12.23;;;6.60;99.90;;;;;;5031238;28;20662;-63
2023/12/30 06:08:07;;;;;;;13.50;12.40;;;6.60;99.90;;;;;;4989526;28;20673;-62
2023/12/30 06:10:34;;;;;;;12.90;11.90;;;6.60;99.90;;;;;;5025587;28;20589;-62
2023/12/30 06:13:04;;;;;;;13.83;12.73;;;6.60;99.90;;;;;;5025900;28;20771;-62
2023/12/30 06:15:32;;;;;;;13.80;12.33;;;6.60;99.90;;;;;;5028998;28;20196;-63
2023/12/30 06:18:00;;;;;;;13.03;11.93;;;6.70;99.90;;;;;;5007784;28;20303;-62
2023/12/30 06:20:27;;;;;;;13.30;11.93;;;6.70;99.90;;;;;;5029972;28;20216;-62
2023/12/30 06:22:54;;;;;;;13.97;12.60;;;6.60;99.90;;;;;;5030245;28;20200;-62
2023/12/30 06:25:21;;;;;;;12.87;11.83;;;6.70;99.90;;;;;;5011242;28;20277;-64
2023/12/30 06:27:48;;;;;;;13.50;12.40;;;6.60;99.90;;;;;;5023764;28;20219;-63
2023/12/30 06:30:15;;;;;;;13.27;12.00;;;6.60;99.90;;;;;;5030585;28;20618;-68
2023/12/30 06:32:42;;;;;;;12.73;11.67;;;6.60;99.90;;;;;;5030241;28;20558;-63
2023/12/30 06:35:10;;;;;;;19.00;12.00;;;6.60;99.90;;;;;;5029403;28;20220;-61
2023/12/30 06:37:37;;;;;;;13.47;12.10;;;6.50;99.90;;;;;;5030134;28;20652;-62
2023/12/30 06:40:04;;;;;;;12.33;11.40;;;6.50;99.90;;;;;;5038633;28;20199;-66
2023/12/30 06:42:31;;;;;;;12.40;11.30;;;6.40;99.90;;;;;;5029173;28;20298;-64
2023/12/30 06:44:58;;;;;;;12.10;11.07;;;6.40;99.90;;;;;;5012239;28;20196;-61
2023/12/30 06:47:25;;;;;;;12.27;11.30;;;6.50;99.90;;;;;;5029970;28;20267;-62
2023/12/30 06:49:52;;;;;;;16.00;11.90;;;6.60;99.90;;;;;;5027399;28;20211;-62
2023/12/30 06:52:19;;;;;;;13.93;11.13;;;6.60;99.90;;;;;;5009725;28;20303;-62
2023/12/30 06:54:46;;;;;;;12.20;11.10;;;6.60;99.90;;;;;;5032739;28;20203;-62
2023/12/30 06:57:25;;;;;;;12.67;11.30;;;6.60;99.90;;;;;;5026034;28;20242;-62
2023/12/30 06:59:52;;;;;;;14.40;11.20;;;6.60;99.90;;;;;;5022253;28;20569;-62
2023/12/30 07:02:21;;;;;;;12.73;11.53;;;6.50;99.90;;;;;;5005268;28;20208;-62
2023/12/30 07:04:47;;;;;;;15.00;11.30;;;6.40;99.90;;;;;;5007773;28;20291;-62
2023/12/30 07:07:14;;;;;;;12.33;11.33;;;6.50;99.90;;;;;;5024282;28;20216;-61
2023/12/30 07:09:41;;;;;;;12.60;11.60;;;6.50;99.90;;;;;;5008866;28;20199;-64
2023/12/30 07:12:08;;;;;;;12.63;11.40;;;6.50;99.90;;;;;;5023999;28;20512;-62
2023/12/30 07:14:37;;;;;;;12.10;11.10;;;6.40;99.90;;;;;;5031175;28;20646;-64
2023/12/30 07:17:04;;;;;;;12.10;11.20;;;6.40;99.90;;;;;;5021489;28;20552;-61
2023/12/30 07:19:31;;;;;;;11.90;10.90;;;6.50;99.90;;;;;;5009403;28;20608;-64
2023/12/30 07:21:59;;;;;;;12.03;10.90;;;6.40;99.90;;;;;;5026870;28;20676;-64
2023/12/30 07:24:26;;;;;;;12.63;11.30;;;6.50;99.90;;;;;;5021135;28;20200;-62
2023/12/30 07:26:58;;;;;;;12.37;10.70;;;6.50;99.90;;;;;;5011448;28;20234;-63
2023/12/30 07:29:28;;;;;;;12.13;10.93;;;6.50;99.90;;;;;;5010320;28;20865;-61
2023/12/30 07:31:55;;;;;;;11.45;10.50;;;6.50;99.90;;;;;;5008276;28;20192;-61
2023/12/30 07:34:22;;;;;;;11.20;10.20;;;6.50;99.90;;;;;;5008935;28;20736;-61
2023/12/30 07:36:50;;;;;;;11.97;10.87;;;6.50;99.90;;;;;;5025619;28;20232;-60
2023/12/30 07:39:17;;;;;;;12.07;10.93;;;6.50;99.90;;;;;;5027546;28;20591;-61
2023/12/30 07:41:45;;;;;;;12.13;10.73;;;6.60;99.90;;;;;;5013161;28;20195;-61
2023/12/30 07:44:13;;;;;;;12.23;11.17;;;6.40;99.90;;;;;;5007740;28;20656;-62
2023/12/30 07:46:40;;;;;;;11.90;11.00;;;6.40;99.90;;;;;;5010880;28;20287;-61
2023/12/30 07:49:08;;;;;;;12.20;10.83;;;6.60;99.90;;;;;;5009503;28;20203;-61
2023/12/30 07:51:35;;;;;;;18.67;11.47;;;6.70;99.90;;;;;;5006194;28;20471;-61
2023/12/30 07:54:02;;;;;;;12.23;11.27;;;6.90;99.90;;;;;;4986292;28;20208;-69
2023/12/30 07:56:29;;;;;;;15.30;11.80;;;7.00;99.90;;;;;;5029506;28;20268;-62
2023/12/30 07:58:56;;;;;;;13.93;11.27;;;7.10;99.90;;;;;;5024704;28;20507;-62
2023/12/30 08:01:24;;;;;;;12.10;11.00;;;7.10;99.90;;;;;;5018912;28;20193;-63
2023/12/30 08:03:51;;;;;;;13.83;11.70;;;7.20;99.90;;;;;;5023673;28;20196;-68
2023/12/30 08:06:18;;;;;;;13.07;11.83;;;7.30;99.90;;;;;;5019081;28;20299;-61
2023/12/30 08:08:45;;;;;;;13.07;11.73;;;7.40;99.90;;;;;;5023875;28;20337;-61
2023/12/30 08:11:13;;;;;;;12.80;11.87;;;7.40;99.90;;;;;;5006686;28;20193;-67
2023/12/30 08:13:40;;;;;;;18.67;11.70;;;7.50;99.90;;;;;;5015562;28;20278;-66
2023/12/30 08:16:08;;;;;;;13.57;12.17;;;7.50;99.90;;;;;;5010382;28;20206;-66
2023/12/30 08:18:35;;;;;;;13.23;12.03;;;7.70;99.90;;;;;;5026687;28;20270;-67
2023/12/30 08:21:02;;;;;;;13.90;12.47;;;7.70;99.90;;;;;;5015289;28;20200;-66
2023/12/30 08:23:29;;;;;;;13.00;11.80;;;7.80;99.90;;;;;;4999048;28;20613;-65
2023/12/30 08:25:56;;;;;;;14.13;12.67;;;7.90;99.90;;;;;;5010113;28;20299;-65
2023/12/30 08:28:23;;;;;;;12.80;11.60;;;7.90;99.90;;;;;;5009752;28;20204;-65
2023/12/30 08:30:53;;;;;;;16.53;13.40;;;7.90;99.90;;;;;;5026008;28;20196;-65
2023/12/30 08:33:21;;;;;;;13.63;12.10;;;7.90;99.90;;;;;;5027817;28;20521;-65
2023/12/30 08:35:49;;;;;;;12.67;11.77;;;7.90;99.90;;;;;;5001440;28;20252;-67
2023/12/30 08:38:16;;;;;;;18.37;12.57;;;7.90;99.90;;;;;;5009519;28;20200;-66
2023/12/30 08:40:43;;;;;;;13.40;12.23;;;7.90;99.90;;;;;;4991724;28;20232;-66
2023/12/30 08:43:11;;;;;;;13.13;11.93;;;7.90;99.90;;;;;;4987546;28;20662;-68
2023/12/30 08:45:38;;;;;;;13.67;12.50;;;7.90;99.90;;;;;;4988787;28;20668;-66
2023/12/30 08:48:06;;;;;;;13.87;12.70;;;7.90;99.90;;;;;;4988916;28;20297;-66
2023/12/30 08:50:33;;;;;;;16.37;12.80;;;8.00;99.90;;;;;;4987551;28;20288;-66
2023/12/30 08:53:00;;;;;;;16.60;13.23;;;8.00;99.90;;;;;;4990040;28;20252;-67
2023/12/30 08:55:27;;;;;;;13.50;12.30;;;8.00;99.90;;;;;;4988599;28;20276;-67
2023/12/30 08:57:54;;;;;;;12.83;12.07;;;8.10;99.90;;;;;;4989860;28;20198;-66
2023/12/30 09:00:21;;;;;;;13.33;12.10;;;8.10;99.90;;;;;;4992456;28;20599;-65
2023/12/30 09:02:48;;;;;;;14.13;12.83;;;8.10;99.90;;;;;;4983380;28;20225;-66
2023/12/30 09:05:19;;;;;;;15.43;12.60;;;8.10;99.90;;;;;;4984716;28;20654;-66
2023/12/30 09:07:48;;;;;;;13.33;12.30;;;8.10;99.90;;;;;;5003482;28;20345;-67
2023/12/30 09:10:19;;;;;;;14.00;12.70;;;8.20;99.90;;;;;;4987497;28;20283;-67
2023/12/30 09:12:46;;;;;;;13.13;12.30;;;8.20;99.90;;;;;;4973855;28;20221;-67
2023/12/30 09:15:13;;;;;;;13.33;12.30;;;8.20;99.90;;;;;;4987458;28;20204;-67
2023/12/30 09:17:40;;;;;;;13.67;12.40;;;8.30;99.90;;;;;;4986347;28;20190;-67
2023/12/30 09:20:08;;;;;;;13.37;12.50;;;8.40;99.90;;;;;;4984531;28;20221;-67
2023/12/30 09:22:36;;;;;;;15.07;12.77;;;8.50;99.90;;;;;;4987114;28;20206;-68
2023/12/30 09:25:03;;;;;;;13.47;12.67;;;8.50;99.90;;;;;;4986431;28;20213;-66
2023/12/30 09:27:30;;;;;;;14.53;13.03;;;8.60;99.90;;;;;;4991420;28;20309;-66
2023/12/30 09:29:57;;;;;;;14.40;13.00;;;8.60;99.90;;;;;;4987486;28;20224;-65
2023/12/30 09:32:24;;;;;;;14.90;13.40;;;8.60;99.90;;;;;;4987580;28;20201;-65
2023/12/30 09:34:52;;;;;;;14.33;13.00;;;8.70;99.90;;;;;;4986399;28;20202;-66
2023/12/30 09:37:20;;;;;;;16.80;12.73;;;8.70;99.90;;;;;;5022367;28;20238;-65
2023/12/30 09:39:47;;;;;;;15.03;13.10;;;8.70;99.90;;;;;;5028247;28;20278;-66
2023/12/30 09:42:14;;;;;;;13.40;12.50;;;8.70;99.90;;;;;;5014931;28;20208;-66
2023/12/30 09:44:42;;;;;;;13.63;12.63;;;8.80;99.90;;;;;;5003692;28;20557;-66
2023/12/30 09:47:10;;;;;;;13.47;12.43;;;8.90;99.90;;;;;;5007603;28;20200;-66
2023/12/30 09:49:37;;;;;;;14.27;12.57;;;8.90;99.90;;;;;;5024802;28;20224;-67
2023/12/30 09:52:06;;;;;;;13.70;12.70;;;8.90;99.90;;;;;;5027379;28;20193;-70
2023/12/30 09:54:34;;;;;;;13.97;12.97;;;9.00;99.90;;;;;;5026251;28;20208;-68
2023/12/30 09:57:14;;;;;;;14.37;13.00;;;9.00;99.90;;;;;;5034699;28;20195;-66
2023/12/30 09:59:43;;;;;;;14.77;13.03;;;8.90;99.90;;;;;;5022626;28;20276;-67
2023/12/30 10:02:12;;;;;;;13.60;12.50;;;8.90;99.90;;;;;;5024876;28;20638;-66
2023/12/30 10:04:39;;;;;;;14.57;13.20;;;8.90;99.90;;;;;;5023624;28;20204;-66
2023/12/30 10:07:07;;;;;;;14.77;13.47;;;8.90;99.90;;;;;;5020001;28;20269;-68
2023/12/30 10:09:34;;;;;;;15.20;13.83;;;8.90;99.90;;;;;;5009418;28;20193;-67
2023/12/30 10:12:02;;;;;;;14.97;13.50;;;9.00;99.90;;;;;;5025286;28;20208;-62
2023/12/30 10:14:29;;;;;;;14.30;13.10;;;9.00;99.90;;;;;;5021727;28;20810;-61
2023/12/30 10:16:56;;;;;;;13.80;12.80;;;9.10;99.90;;;;;;5026244;28;20199;-64
2023/12/30 10:19:27;;;;;;;13.67;12.67;;;9.20;99.90;;;;;;5006031;28;20254;-63
2023/12/30 10:21:57;;;;;;;17.07;13.10;;;9.60;99.90;;;;;;5008752;28;20208;-63
2023/12/30 10:24:24;;;;;;;13.50;12.40;;;9.70;99.90;;;;;;5026575;28;20553;-64
2023/12/30 10:26:51;;;;;;;16.30;12.90;;;9.70;99.90;;;;;;5028839;28;21036;-66
2023/12/30 10:29:19;;;;;;;13.77;12.50;;;9.70;99.90;;;;;;5011644;28;20307;-66
2023/12/30 10:31:59;;;;;;;13.10;12.20;;;9.80;99.90;;;;;;5029247;28;20691;-67
2023/12/30 10:34:26;;;;;;;13.80;12.60;;;9.90;99.90;;;;;;5019423;28;20270;-67
2023/12/30 10:36:54;;;;;;;15.33;13.00;;;9.70;99.90;;;;;;5026806;28;20611;-70
2023/12/30 10:39:25;;;;;;;19.57;13.30;;;9.70;99.90;;;;;;5028997;28;20189;-67
2023/12/30 10:41:52;;;;;;;19.30;13.10;;;9.90;99.90;;;;;;5017976;28;20204;-65
2023/12/30 10:44:19;;;;;;;13.03;12.23;;;9.90;99.90;;;;;;5028913;28;20223;-68
2023/12/30 10:46:48;;;;;;;14.40;13.13;;;10.00;99.90;;;;;;5029624;28;20269;-68
2023/12/30 10:49:21;;;;;;;18.60;13.20;;;10.00;99.90;;;;;;5011974;28;20201;-77
2023/12/30 10:51:51;;;;;;;13.23;12.43;;;10.10;99.90;;;;;;4993968;28;20227;-67
2023/12/30 10:54:28;;;;;;;14.47;13.10;;;10.10;99.90;;;;;;5028062;28;20679;-68
2023/12/30 10:57:02;;;;;;;14.67;13.23;;;9.90;99.90;;;;;;5011332;28;20215;-67
2023/12/30 10:59:29;;;;;;;14.87;13.43;;;9.80;99.90;;;;;;5011155;28;20195;-67
2023/12/30 11:01:57;;;;;;;15.27;13.87;;;9.80;99.90;;;;;;5027554;28;20261;-66
2023/12/30 11:04:26;;;;;;;14.33;13.40;;;9.70;99.90;;;;;;5011177;28;20889;-62
2023/12/30 11:06:59;;;;;;;13.63;12.83;;;9.70;99.90;;;;;;5011026;28;20224;-61
2023/12/30 11:09:27;;;;;;;16.30;14.63;;;9.70;99.90;;;;;;5031226;28;20933;-62
2023/12/30 11:11:59;;;;;;;15.20;13.73;;;9.70;99.90;;;;;;5023072;28;20197;-60
2023/12/30 11:14:26;;;;;;;17.73;16.07;;;9.70;99.90;;;;;;5024648;28;20204;-61
2023/12/30 11:16:55;;;;;;;16.20;14.90;;;9.80;99.90;;;;;;5029433;28;20206;-62
2023/12/30 11:19:29;;;;;;;17.07;15.37;;;9.80;99.90;;;;;;5029882;28;20575;-61
2023/12/30 11:22:00;;;;;;;16.30;14.63;;;9.80;99.90;;;;;;5010962;28;20200;-62
2023/12/30 11:24:27;;;;;;;21.87;17.93;;;9.80;99.90;;;;;;5011350;28;20300;-62
2023/12/30 11:26:55;;;;;;;18.90;16.67;;;9.80;99.90;;;;;;5012518;28;20558;-64
2023/12/30 11:29:27;;;;;;;16.83;15.33;;;9.80;99.90;;;;;;5006153;28;20197;-61
2023/12/30 11:31:57;;;;;;;18.37;16.47;;;9.80;99.90;;;;;;5014602;28;20227;-62
2023/12/30 11:34:24;;;;;;;18.43;16.07;;;9.80;99.90;;;;;;5028420;28;20226;-65
2023/12/30 11:36:53;;;;;;;15.40;13.80;;;9.70;99.90;;;;;;5022512;28;20235;-62
2023/12/30 11:39:41;;;;;;;16.07;14.73;;;9.50;99.90;;;;;;5009251;28;20587;-61
2023/12/30 11:42:08;;;;;;;16.07;14.50;;;9.50;99.90;;;;;;5020365;28;20191;-61
2023/12/30 11:44:35;;;;;;;23.97;17.73;;;9.50;99.90;;;;;;5017954;28;20270;-62
2023/12/30 11:47:02;;;;;;;14.63;13.53;;;9.40;99.90;;;;;;5008300;28;20200;-64
2023/12/30 11:49:29;;;;;;;16.03;14.70;;;9.50;99.90;;;;;;5030066;28;20616;-61
2023/12/30 11:52:14;;;;;;;20.90;17.23;;;9.50;99.90;;;;;;5023883;28;20219;-61
2023/12/30 11:54:41;;;;;;;17.30;14.33;;;9.50;99.90;;;;;;5030632;28;20294;-61
2023/12/30 11:57:09;;;;;;;17.23;15.60;;;9.60;99.90;;;;;;5015799;28;20203;-61
2023/12/30 11:59:36;;;;;;;17.33;15.93;;;9.60;99.90;;;;;;5016691;28;20192;-61
2023/12/30 12:02:07;;;;;;;19.47;17.53;;;9.60;99.90;;;;;;5002955;28;20696;-63
2023/12/30 12:04:35;;;;;;;14.77;13.43;;;9.70;99.90;;;;;;5021388;28;20568;-62
2023/12/30 12:07:03;;;;;;;17.00;14.87;;;9.70;99.90;;;;;;5016612;28;20227;-61
2023/12/30 12:09:30;;;;;;;22.30;18.20;;;9.70;99.90;;;;;;5034187;28;20234;-62
2023/12/30 12:11:57;;;;;;;17.27;15.50;;;9.70;99.90;;;;;;5010654;28;20457;-62
2023/12/30 12:14:25;;;;;;;16.97;15.03;;;9.70;99.90;;;;;;5033111;28;20543;-63
2023/12/30 12:16:51;;;;;;;16.47;14.93;;;9.70;99.90;;;;;;5025821;28;20216;-64
2023/12/30 12:19:19;;;;;;;14.97;13.73;;;9.80;99.90;;;;;;5008724;28;20286;-63
2023/12/30 12:21:46;;;;;;;15.77;14.37;;;9.90;99.90;;;;;;5010015;28;20227;-62
2023/12/30 12:24:13;;;;;;;19.07;13.83;;;10.00;99.90;;;;;;5005342;28;20226;-70
2023/12/30 12:26:40;;;;;;;13.80;12.80;;;10.00;99.90;;;;;;5023215;28;20193;-62
2023/12/30 12:29:07;;;;;;;16.17;13.33;;;10.00;99.90;;;;;;5016325;28;20224;-62
2023/12/30 12:31:34;;;;;;;13.87;12.87;;;10.10;99.90;;;;;;5029187;28;20189;-61
2023/12/30 12:34:21;;;;;;;15.00;13.77;;;10.10;99.90;;;;;;5010510;28;20219;-62
2023/12/30 12:36:49;;;;;;;14.63;12.80;;;10.00;99.90;;;;;;5014065;28;20233;-61
2023/12/30 12:39:18;;;;;;;14.93;13.43;;;10.00;99.90;;;;;;5031331;28;20193;-61
2023/12/30 12:41:47;;;;;;;14.30;13.03;;;10.00;99.90;;;;;;5014586;28;20189;-62